FXMM/MSU METAR and TAF weather

Enter ICAO airport designator
Station Type Date Time Source
FXMM METAR 2020/09/19 09:00 UTC NOAA

FXMM 190900Z 29003KT 9999 CAVOK 22/M06 Q1023 NOSIG


Station Type Date Time Source
FXMM Decoded METAR 2020/09/19 09:00 UTC NOAA

Maseru / Moshoeshoe, Lesotho (FXMM) 29-27S 027-33E
Sep 19, 2020 - 05:00 AM EDT / 2020.09.19 0900 UTC
Wind: from the WNW (290 degrees) at 3 MPH (3 KT):0
Visibility: greater than 7 mile(s):0
Temperature: 71 F (22 C)
Dew Point: 21 F (-6 C)
Relative Humidity: 14%
Pressure (altimeter): 30.21 in. Hg (1023 hPa)
ob: FXMM 190900Z 29003KT 9999 CAVOK 22/M06 Q1023 NOSIG
cycle: 9

Station Type Date Time Source
FXMM TAF 2020/03/16 06:37 UTC NOAA

TAF FXMM 160400Z 1606/1706 00000KT 9999 FEW035 TX24/1612Z TN12/1703Z
BECMG 1608/1610 30010KT
BECMG 1612/1614 FEW035CB PROB30
TEMPO 1615/1618 4000 TSRA
BECMG 1620/1624 00000KT CAVOK

Example: see airport list